Saipan, MP

2:11 AM ChST on August 01, 2014 (GMT +1000)
Saipan International (PGSN) Elev 213 ft | 15.12 °N, 145.73 °E | Change Station

Current weather conditions updated 17 minutes ago

Partly Cloudy
Partly Cloudy
81 °F
Feels Like 87 °F
N
4
Wind Variable Wind from SSW

Today is forecast to be Cooler than yesterday. A few thunderstorms possible.

Today
High -- | Low -- °F
--% Chance of Precip.
Yesterday
High -- | Low -- °F
Precip. -- in
5:59 AM 6:47 PM
Waxing Crescent, 19% visible
Pressure 29.89 in
Visibility 10.0 miles
Clouds Few 2100 ft
Heat Index 87 °F
Dew Point 75 °F
Humidity 82%
Rainfall 0.00 in
Snow Depth Not available.
UV 0 out of 12
Pollen Not available.
Air Quality Not available.
Flu Activity Not available.
METAR PGSN 311554Z 20003KT 10SM FEW021 27/24 A2982 RMK AO2 SLP120 T02720239

More Conditions Fewer Conditions

Pressure 29.89 in
Visibility 10.0 miles
Clouds Few 2100 ft
Heat Index 87 °F
Dew Point 75 °F
Humidity 82%
Rainfall 0.00 in
Snow Depth Not available.
UV 0 out of 12
Pollen Not available.
Air Quality Not available.
Flu Activity Not available.
METAR PGSN 311554Z 20003KT 10SM FEW021 27/24 A2982 RMK AO2 SLP120 T02720239

More Conditions Fewer Conditions

10-Day Weather Forecast

Almanac

Astronomy

Aug. 01, 2014 Rise Set
Actual Time 5:59 AM ChST 6:47 PM ChST
Civil Twilight 5:36 AM ChST 7:09 PM ChST
Nautical Twilight 5:09 AM ChST 7:36 PM ChST
Astronomical Twilight 4:42 AM ChST 8:03 PM ChST
Moon 9:54 AM ChST (8/1) 10:06 PM ChST (8/1)
Length of Visible Light 13h 33m
Length of Day
12h 47m
Tomorrow will be 0m 37s shorter.
Waxing Crescent, 19% of the Moon is Illuminated
Jul 31
Waxing Crescent
Aug 3
First Quarter
Aug 10
Full
Aug 17
Last Quarter
Aug 25
New

Community

WunderPhotos

Upload Photos

1,739,367 photos uploaded!

Nearby

Snow Depth

Station Depth Elevation
No new snow has been reported.

Earthquake Activity

City Distance Mag. Time & Date
No recent earthquake activity has been reported nearby.
Minimum magnitude displayed is 2.5.

Coastal Water Temperatures

Place Temperature
No Stations Reporting

Nearby Weather Stations

There are no personal weather stations in this area.